ENSG/SOG METAR and TAF weather

Enter ICAO airport designator
Station Type Date Time Source
ENSG METAR 2018/12/10 18:20 UTC NOAA

ENSG 101820Z VRB02KT 9999 FEW006 M03/M05 Q1013 RMK WIND 3806FT 33017KT


Station Type Date Time Source
ENSG Decoded METAR 2018/12/10 18:20 UTC NOAA

Sogndal / Haukasen, Norway (ENSG) 61-09N 007-08E 497M
Dec 10, 2018 - 01:20 PM EST / 2018.12.10 1820 UTC
Wind: Variable at 2 MPH (2 KT):0
Visibility: greater than 7 mile(s):0
Sky conditions: mostly clear
Temperature: 26 F (-3 C)
Dew Point: 23 F (-5 C)
Relative Humidity: 86%
Pressure (altimeter): 29.91 in. Hg (1013 hPa)
ob: ENSG 101820Z VRB02KT 9999 FEW006 M03/M05 Q1013 RMK WIND 3806FT 33017KT
cycle: 18

Station Type Date Time Source
ENSG TAF UTC NOAA

Error!


Example: see airport list